Murcia, Spain

9:07 PM CET on February 26, 2017 (GMT +0100)
Las Terrazas de La Torre | | Change Station

Elev 285 ft 37.80 °N, 0.98 °W | Updated 17 seconds ago

Clear
Clear
55.8 °F
Feels Like 55.8 °F
N
0.0
Wind Variable Wind from NW
Gusts 0.7 mph

Today
High -- | Low -- °F
--% Chance of Precip.
Yesterday
High -- | Low -- °F
Precip. -- in
Pressure 30.12 in
Visibility 6.2 miles
Clouds Few 1000 ft
Dew Point 52 °F
Humidity 86%
Rainfall 0.00 in
Snow Depth Not available.
7:38 AM 6:53 PM
New Moon, 0% visible
METAR LEAL 261930Z VRB01KT 9999 FEW010 13/12 Q1020 NOSIG
Pressure 30.12 in
Visibility 6.2 miles
Clouds Few 1000 ft
Dew Point 52 °F
Humidity 86%
Rainfall 0.00 in
Snow Depth Not available.
7:38 AM 6:53 PM
New Moon, 0% visible
METAR LEAL 261930Z VRB01KT 9999 FEW010 13/12 Q1020 NOSIG

Get Your Daily Forecast Email!

Thanks for signing up!

Be on the lookout for a verification email in your inbox.

You'll start receiving the daily forecast at 8 AM.

×

10-Day Weather Forecast

×

Almanac

Astronomy

Feb. 26, 2017 Rise Set
Actual Time
Civil Twilight
Nautical Twilight
Astronomical Twilight
Moon
Length of Visible Light
Length of Day
Tomorrow will be .
, % of the Moon is Illuminated

Today's Extremes

Country Highs Country Lows

Community

WunderPhotos

Upload Photos

1,962,540 photos uploaded!

WunderBlog® & News

Nearby

Air Quality

  Air Quality AQ Index Pollutant
Not available.

Snow Depth

Station Depth Elevation

Earthquake Activity

City Distance Mag. Time & Date
Minimum magnitude displayed is 2.5.

Coastal Water Temperatures

Place Temperature

Stations

Nearby Weather Stations

Station Location Temp. Windchill Dew Point Humidity Wind Precip. Elev Updated Type